Time;durP1;ratioP1;P1;durP2;ratioP2;P2;SDS_P1;SDS_P2;PMS_P1;PMS_P2;Temp;Humidity;BMP_temperature;BMP_pressure;BME280_temperature;BME280_humidity;BME280_pressure;Samples;Min_cycle;Max_cycle;Signal;HPM_P1;HPM_P2
2022/08/25 00:00:17;;;;;;;0.00;0.00;;;21.00;99.90;;;;;;5051694;28;20462;-75
2022/08/25 00:02:45;;;;;;;0.00;0.00;;;20.90;99.90;;;;;;5051080;28;21206;-75
2022/08/25 00:05:26;;;;;;;0.00;0.00;;;20.90;99.90;;;;;;5051388;28;20461;-74
2022/08/25 00:08:00;;;;;;;0.00;0.00;;;20.90;99.90;;;;;;5056864;28;20449;-77
2022/08/25 00:10:29;;;;;;;0.00;0.00;;;20.80;99.90;;;;;;5057493;28;20475;-77
2022/08/25 00:12:56;;;;;;;0.00;0.00;;;20.80;99.90;;;;;;5057563;28;20534;-76
2022/08/25 00:15:25;;;;;;;0.00;0.00;;;20.80;99.90;;;;;;5058966;28;20435;-76
2022/08/25 00:17:53;;;;;;;0.00;0.00;;;20.80;99.90;;;;;;5057952;28;20431;-77
2022/08/25 00:20:21;;;;;;;0.00;0.00;;;20.80;99.90;;;;;;5052833;28;20460;-76
2022/08/25 00:22:49;;;;;;;0.00;0.00;;;20.80;99.90;;;;;;5050529;28;20485;-78
2022/08/25 00:25:19;;;;;;;0.00;0.00;;;20.80;99.90;;;;;;5043671;28;20941;-75
2022/08/25 00:27:47;;;;;;;0.00;0.00;;;20.70;99.90;;;;;;5051622;28;21076;-77
2022/08/25 00:30:16;;;;;;;0.00;0.00;;;20.70;99.90;;;;;;5047532;28;20505;-76
2022/08/25 00:32:44;;;;;;;0.00;0.00;;;20.70;99.90;;;;;;5051263;28;20461;-77
2022/08/25 00:35:24;;;;;;;0.00;0.00;;;20.60;99.90;;;;;;5051403;28;21138;-77
2022/08/25 00:37:51;;;;;;;0.00;0.00;;;20.60;99.90;;;;;;5060689;28;21122;-78
2022/08/25 00:40:22;;;;;;;0.00;0.00;;;20.60;99.90;;;;;;5060005;28;20446;-77
2022/08/25 00:42:50;;;;;;;0.00;0.00;;;20.60;99.90;;;;;;5062667;28;20487;-78
2022/08/25 00:45:18;;;;;;;0.00;0.00;;;20.60;99.90;;;;;;5064180;28;20440;-77
2022/08/25 00:47:46;;;;;;;0.00;0.00;;;20.50;99.90;;;;;;5063374;28;20451;-77
2022/08/25 00:50:16;;;;;;;0.00;0.00;;;20.50;99.90;;;;;;5063522;28;20445;-77
2022/08/25 00:52:47;;;;;;;0.00;0.00;;;20.50;99.90;;;;;;5064949;28;20482;-78
2022/08/25 00:55:21;;;;;;;0.00;0.00;;;20.40;99.90;;;;;;5065624;28;20447;-77
2022/08/25 00:57:55;;;;;;;0.00;0.00;;;20.40;99.90;;;;;;5065251;28;20471;-77
2022/08/25 01:00:26;;;;;;;0.00;0.00;;;20.40;99.90;;;;;;5066402;28;20434;-74
2022/08/25 01:02:56;;;;;;;0.00;0.00;;;20.40;99.90;;;;;;5072051;28;20475;-74
2022/08/25 01:05:25;;;;;;;0.00;0.00;;;20.30;99.90;;;;;;5064221;28;20520;-75
2022/08/25 01:07:54;;;;;;;0.00;0.00;;;20.30;99.90;;;;;;5065090;28;20745;-76
2022/08/25 01:10:27;;;;;;;0.00;0.00;;;20.30;99.90;;;;;;5061814;28;20442;-76
2022/08/25 01:13:02;;;;;;;0.00;0.00;;;20.30;99.90;;;;;;5061756;28;20436;-76
2022/08/25 01:15:30;;;;;;;0.00;0.00;;;20.30;99.90;;;;;;5064550;28;20457;-76
2022/08/25 01:17:59;;;;;;;0.00;0.00;;;20.20;99.90;;;;;;5061207;28;20444;-76
2022/08/25 01:20:30;;;;;;;0.00;0.00;;;20.20;99.90;;;;;;5061227;28;20848;-76
2022/08/25 01:23:00;;;;;;;0.00;0.00;;;20.20;99.90;;;;;;5060713;28;20520;-76
2022/08/25 01:25:45;;;;;;;0.00;0.00;;;20.20;99.90;;;;;;5062843;28;20726;-76
2022/08/25 01:28:14;;;;;;;0.00;0.00;;;20.10;99.90;;;;;;5060873;28;20462;-76
2022/08/25 01:30:42;;;;;;;0.00;0.00;;;20.10;99.90;;;;;;5060636;28;20466;-76
2022/08/25 01:33:12;;;;;;;0.00;0.00;;;20.10;99.90;;;;;;5060264;28;20452;-75
2022/08/25 01:35:40;;;;;;;0.00;0.00;;;20.10;99.90;;;;;;5060950;28;20450;-77
2022/08/25 01:38:10;;;;;;;0.00;0.00;;;20.00;99.90;;;;;;5060958;28;20958;-78
2022/08/25 01:40:39;;;;;;;0.00;0.00;;;20.00;99.90;;;;;;5061898;28;20447;-77
2022/08/25 01:43:16;;;;;;;0.00;0.00;;;20.10;99.90;;;;;;5059764;28;20574;-75
2022/08/25 01:45:47;;;;;;;0.00;0.00;;;20.00;99.90;;;;;;5060001;28;20933;-76
2022/08/25 01:48:18;;;;;;;0.00;0.00;;;20.00;99.90;;;;;;5059684;28;20517;-75
2022/08/25 01:50:45;;;;;;;0.00;0.00;;;20.00;99.90;;;;;;5059504;28;20443;-75
2022/08/25 01:53:21;;;;;;;0.00;0.00;;;20.00;99.90;;;;;;5059209;28;20545;-75
2022/08/25 01:55:54;;;;;;;0.00;0.00;;;20.00;99.90;;;;;;5059364;28;20431;-76
2022/08/25 01:58:24;;;;;;;0.00;0.00;;;19.90;99.90;;;;;;5059664;28;20455;-75
2022/08/25 02:00:55;;;;;;;0.00;0.00;;;19.90;99.90;;;;;;5059449;28;20443;-76
2022/08/25 02:03:25;;;;;;;0.00;0.00;;;19.80;99.90;;;;;;5059348;28;20475;-76
2022/08/25 02:05:53;;;;;;;0.00;0.00;;;19.80;99.90;;;;;;5059299;28;20547;-76
2022/08/25 02:08:23;;;;;;;0.00;0.00;;;19.90;99.90;;;;;;5059492;28;20851;-75
2022/08/25 02:10:52;;;;;;;0.00;0.00;;;19.80;99.90;;;;;;5059367;28;20454;-76
2022/08/25 02:13:20;;;;;;;0.00;0.00;;;19.80;99.90;;;;;;5059206;28;20431;-75
2022/08/25 02:21:15;;;;;;;0.00;0.00;;;19.70;99.90;;;;;;5245589;22;20521;-77
2022/08/25 02:23:44;;;;;;;0.00;0.00;;;19.70;99.90;;;;;;5081359;28;20478;-77
2022/08/25 02:26:15;;;;;;;0.00;0.00;;;19.70;99.90;;;;;;5078765;28;20474;-77
2022/08/25 02:28:43;;;;;;;0.00;0.00;;;19.70;99.90;;;;;;5080016;28;20541;-77
2022/08/25 02:31:11;;;;;;;0.00;0.00;;;19.70;99.90;;;;;;5081310;28;20442;-78
2022/08/25 02:33:39;;;;;;;0.00;0.00;;;19.60;99.90;;;;;;5081133;28;20957;-78
2022/08/25 02:36:07;;;;;;;0.00;0.00;;;19.60;99.90;;;;;;5080844;28;20514;-79
2022/08/25 02:38:36;;;;;;;0.00;0.00;;;19.60;99.90;;;;;;5080562;28;21191;-79
2022/08/25 02:41:12;;;;;;;0.00;0.00;;;19.60;99.90;;;;;;5080492;28;20442;-78
2022/08/25 02:43:41;;;;;;;0.00;0.00;;;19.60;99.90;;;;;;5079395;28;20480;-77
2022/08/25 02:46:10;;;;;;;0.00;0.00;;;19.60;99.90;;;;;;5079836;28;20452;-78
2022/08/25 02:48:39;;;;;;;0.00;0.00;;;19.50;99.90;;;;;;5080167;28;20459;-78
2022/08/25 02:51:09;;;;;;;0.00;0.00;;;19.50;99.90;;;;;;5079594;28;20536;-77
2022/08/25 02:53:39;;;;;;;0.00;0.00;;;19.60;99.90;;;;;;5079506;28;20513;-78
2022/08/25 02:56:10;;;;;;;0.00;0.00;;;19.50;99.90;;;;;;5079513;28;20502;-77
2022/08/25 02:58:40;;;;;;;0.00;0.00;;;19.50;99.90;;;;;;5078266;28;20469;-76
2022/08/25 03:01:10;;;;;;;0.00;0.00;;;19.50;99.90;;;;;;5079693;28;21098;-78
2022/08/25 03:03:40;;;;;;;0.00;0.00;;;19.50;99.90;;;;;;5079844;28;20462;-78
2022/08/25 03:06:11;;;;;;;0.00;0.00;;;19.50;99.90;;;;;;5093344;28;20447;-79
2022/08/25 03:08:40;;;;;;;0.00;0.00;;;19.50;99.90;;;;;;5083605;28;20459;-78
2022/08/25 03:11:10;;;;;;;0.00;0.00;;;19.50;99.90;;;;;;5079734;28;20438;-78
2022/08/25 03:13:38;;;;;;;0.00;0.00;;;19.40;99.90;;;;;;5079321;28;20425;-78
2022/08/25 03:16:07;;;;;;;0.00;0.00;;;19.40;99.90;;;;;;5079677;28;20473;-78
2022/08/25 03:18:38;;;;;;;0.00;0.00;;;19.40;99.90;;;;;;5080079;28;20469;-78
2022/08/25 03:21:07;;;;;;;0.00;0.00;;;19.30;99.90;;;;;;5079258;28;20512;-79
2022/08/25 03:23:35;;;;;;;0.00;0.00;;;19.40;99.90;;;;;;5079151;28;20477;-79
2022/08/25 03:28:49;;;;;;;0.00;0.00;;;19.30;99.90;;;;;;5080429;28;20454;-78
2022/08/25 03:31:17;;;;;;;0.00;0.00;;;19.30;99.90;;;;;;5082081;28;20438;-79
2022/08/25 03:33:45;;;;;;;0.00;0.00;;;19.30;99.90;;;;;;5086273;28;20479;-79
2022/08/25 03:36:13;;;;;;;0.00;0.00;;;19.30;99.90;;;;;;5084178;28;20439;-79
2022/08/25 03:38:41;;;;;;;0.00;0.00;;;19.20;99.90;;;;;;5084645;28;20462;-79
2022/08/25 03:41:15;;;;;;;0.00;0.00;;;19.20;99.90;;;;;;5087637;28;20454;-79
2022/08/25 03:43:43;;;;;;;0.00;0.00;;;19.20;99.90;;;;;;5081729;28;20539;-80
2022/08/25 03:46:20;;;;;;;0.00;0.00;;;19.20;99.90;;;;;;5079640;28;20474;-77
2022/08/25 03:48:49;;;;;;;0.00;0.00;;;19.20;99.90;;;;;;5078690;28;20498;-76
2022/08/25 03:51:21;;;;;;;0.00;0.00;;;19.10;99.90;;;;;;5078503;28;20446;-76
2022/08/25 03:53:49;;;;;;;0.00;0.00;;;19.10;99.90;;;;;;5079625;28;20444;-76
2022/08/25 03:56:18;;;;;;;0.00;0.00;;;19.10;99.90;;;;;;5084196;28;20444;-77
2022/08/25 03:58:46;;;;;;;0.00;0.00;;;19.10;99.90;;;;;;5086066;28;20465;-79
2022/08/25 04:01:15;;;;;;;0.00;0.00;;;19.00;99.90;;;;;;5092332;28;20456;-78
2022/08/25 04:03:47;;;;;;;0.00;0.00;;;19.00;99.90;;;;;;5100541;28;20513;-79
2022/08/25 04:06:17;;;;;;;0.00;0.00;;;19.10;99.90;;;;;;5088953;28;20457;-78
2022/08/25 04:08:45;;;;;;;0.00;0.00;;;19.00;99.90;;;;;;5082046;28;21187;-77
2022/08/25 04:11:16;;;;;;;0.00;0.00;;;19.00;99.90;;;;;;5086245;28;20442;-78
2022/08/25 04:13:45;;;;;;;0.00;0.00;;;19.00;99.90;;;;;;5086901;28;20477;-77
2022/08/25 04:16:14;;;;;;;0.00;0.00;;;19.00;99.90;;;;;;5084641;28;21167;-77
2022/08/25 04:18:42;;;;;;;0.00;0.00;;;19.00;99.90;;;;;;5085437;28;20470;-77
2022/08/25 04:21:13;;;;;;;0.00;0.00;;;19.00;99.90;;;;;;5084008;28;20476;-78
2022/08/25 04:23:42;;;;;;;0.00;0.00;;;19.00;99.90;;;;;;5085272;28;20456;-78
2022/08/25 04:26:12;;;;;;;0.00;0.00;;;19.00;99.90;;;;;;5085347;28;20438;-78
2022/08/25 04:28:40;;;;;;;0.00;0.00;;;19.00;99.90;;;;;;5092480;28;20580;-79
2022/08/25 04:31:10;;;;;;;0.00;0.00;;;19.00;99.90;;;;;;5086357;28;20994;-76
2022/08/25 04:33:38;;;;;;;0.00;0.00;;;19.00;99.90;;;;;;5083151;28;20452;-77
2022/08/25 04:36:08;;;;;;;0.00;0.00;;;19.00;99.90;;;;;;5082602;28;20460;-79
2022/08/25 04:38:42;;;;;;;0.00;0.00;;;19.00;99.90;;;;;;5089547;28;20469;-77
2022/08/25 04:41:12;;;;;;;0.00;0.00;;;19.00;99.90;;;;;;5091575;28;20998;-79
2022/08/25 04:43:42;;;;;;;0.00;0.00;;;19.00;99.90;;;;;;5088840;28;20444;-80
2022/08/25 04:46:13;;;;;;;0.00;0.00;;;19.00;99.90;;;;;;5084134;28;20485;-76
2022/08/25 04:48:47;;;;;;;0.00;0.00;;;19.00;99.90;;;;;;5081668;28;21008;-76
2022/08/25 04:51:17;;;;;;;0.00;0.00;;;19.00;99.90;;;;;;5081309;28;20488;-77
2022/08/25 04:53:47;;;;;;;0.00;0.00;;;19.00;99.90;;;;;;5081613;28;20961;-77
2022/08/25 04:56:17;;;;;;;0.00;0.00;;;19.00;99.90;;;;;;5083982;28;20529;-77
2022/08/25 04:58:45;;;;;;;0.00;0.00;;;19.10;99.90;;;;;;5082557;28;20468;-76
2022/08/25 05:01:16;;;;;;;0.00;0.00;;;19.00;99.90;;;;;;5081827;28;20572;-77
2022/08/25 05:03:45;;;;;;;0.00;0.00;;;19.00;99.90;;;;;;5081764;28;20454;-76
2022/08/25 05:06:14;;;;;;;0.00;0.00;;;19.00;99.90;;;;;;5082090;28;20553;-76
2022/08/25 05:08:43;;;;;;;0.00;0.00;;;19.10;99.90;;;;;;5082728;28;20473;-76
2022/08/25 05:11:16;;;;;;;0.00;0.00;;;19.10;99.90;;;;;;5099497;28;20435;-76
2022/08/25 05:13:45;;;;;;;0.00;0.00;;;19.10;99.90;;;;;;5096881;28;20450;-74
2022/08/25 05:16:20;;;;;;;0.00;0.00;;;19.10;99.90;;;;;;5069789;28;20474;-75
2022/08/25 05:18:50;;;;;;;0.00;0.00;;;19.10;99.90;;;;;;5070605;28;20985;-77
2022/08/25 05:21:20;;;;;;;0.00;0.00;;;19.20;99.90;;;;;;5060604;28;20482;-77
2022/08/25 05:23:48;;;;;;;0.00;0.00;;;19.20;99.90;;;;;;5060933;28;20460;-76
2022/08/25 05:26:19;;;;;;;0.00;0.00;;;19.30;99.90;;;;;;5061108;28;20598;-76
2022/08/25 05:28:51;;;;;;;0.00;0.00;;;19.30;99.90;;;;;;5069454;28;20986;-77
2022/08/25 05:31:20;;;;;;;0.00;0.00;;;19.50;99.90;;;;;;5071715;28;20451;-77
2022/08/25 05:33:49;;;;;;;0.00;0.00;;;19.60;99.90;;;;;;5074112;28;20817;-78
2022/08/25 05:36:18;;;;;;;0.00;0.00;;;19.70;99.90;;;;;;5061667;28;20600;-72
2022/08/25 05:38:46;;;;;;;0.00;0.00;;;19.70;99.90;;;;;;5082291;28;20499;-71
2022/08/25 05:41:18;;;;;;;0.00;0.00;;;19.80;99.90;;;;;;5082072;28;20439;-73
2022/08/25 05:43:48;;;;;;;0.00;0.00;;;19.90;99.90;;;;;;5066900;28;20443;-72
2022/08/25 05:46:18;;;;;;;0.00;0.00;;;19.90;99.90;;;;;;5060152;28;20565;-72
2022/08/25 05:48:46;;;;;;;0.00;0.00;;;20.10;99.90;;;;;;5061532;28;20532;-74
2022/08/25 05:51:15;;;;;;;0.00;0.00;;;20.10;99.90;;;;;;5071199;28;20470;-72
2022/08/25 05:53:45;;;;;;;0.00;0.00;;;20.10;99.90;;;;;;5065967;28;20447;-72
2022/08/25 05:56:14;;;;;;;0.00;0.00;;;20.10;99.90;;;;;;5059578;28;20950;-72
2022/08/25 05:58:44;;;;;;;0.00;0.00;;;20.10;99.90;;;;;;5059549;28;20455;-71
2022/08/25 06:04:10;;;;;;;0.00;0.00;;;20.20;99.90;;;;;;5062629;28;20516;-71
2022/08/25 06:06:39;;;;;;;0.00;0.00;;;20.30;99.90;;;;;;5065641;28;21091;-71
2022/08/25 06:09:07;;;;;;;0.00;0.00;;;20.30;99.90;;;;;;5062866;28;20459;-72
2022/08/25 06:11:38;;;;;;;0.00;0.00;;;20.40;99.90;;;;;;5061041;28;21029;-72
2022/08/25 06:14:09;;;;;;;0.00;0.00;;;20.40;99.90;;;;;;5069322;28;20458;-70
2022/08/25 06:16:37;;;;;;;0.00;0.00;;;20.40;99.90;;;;;;5071578;28;20514;-69
2022/08/25 06:19:06;;;;;;;0.00;0.00;;;20.40;99.90;;;;;;5082824;28;21063;-72
2022/08/25 06:21:34;;;;;;;0.00;0.00;;;20.50;99.90;;;;;;5080856;28;21111;-72
2022/08/25 06:24:02;;;;;;;0.00;0.00;;;20.50;99.90;;;;;;5079538;28;20484;-73
2022/08/25 06:26:30;;;;;;;0.00;0.00;;;20.50;99.90;;;;;;5079824;28;21098;-72
2022/08/25 06:28:58;;;;;;;0.00;0.00;;;20.60;99.90;;;;;;5067207;28;20558;-72
2022/08/25 06:31:27;;;;;;;0.00;0.00;;;20.70;99.90;;;;;;5069928;28;20446;-72
2022/08/25 06:33:56;;;;;;;0.00;0.00;;;20.70;99.90;;;;;;5079302;28;20851;-71
2022/08/25 06:36:24;;;;;;;0.00;0.00;;;20.80;99.90;;;;;;5080347;28;20840;-71
2022/08/25 06:38:52;;;;;;;0.00;0.00;;;20.80;99.90;;;;;;5080071;28;20446;-77
2022/08/25 06:41:21;;;;;;;0.00;0.00;;;20.90;99.90;;;;;;5080099;28;20449;-77
2022/08/25 06:43:49;;;;;;;0.00;0.00;;;20.90;99.90;;;;;;5061563;28;20456;-76
2022/08/25 06:46:28;;;;;;;0.00;0.00;;;20.90;99.90;;;;;;5058835;28;20839;-76
2022/08/25 06:49:04;;;;;;;0.00;0.00;;;21.00;99.90;;;;;;5061152;28;20474;-81
2022/08/25 06:51:34;;;;;;;0.00;0.00;;;21.10;99.90;;;;;;5062708;28;20443;-76
2022/08/25 06:54:03;;;;;;;0.00;0.00;;;21.10;99.90;;;;;;5066984;28;20482;-77
2022/08/25 06:56:32;;;;;;;0.00;0.00;;;21.20;99.90;;;;;;5077749;28;20934;-76
2022/08/25 06:59:01;;;;;;;0.00;0.00;;;21.30;99.90;;;;;;5077164;28;20462;-76
2022/08/25 07:01:30;;;;;;;0.00;0.00;;;21.30;99.90;;;;;;5076459;28;20667;-76
2022/08/25 07:04:01;;;;;;;0.00;0.00;;;21.40;99.90;;;;;;5077421;28;20438;-76
2022/08/25 07:06:31;;;;;;;0.00;0.00;;;21.50;99.90;;;;;;5077718;28;20478;-76
2022/08/25 07:09:00;;;;;;;0.00;0.00;;;21.60;99.90;;;;;;5077954;28;20462;-76
2022/08/25 07:11:28;;;;;;;0.00;0.00;;;21.60;99.90;;;;;;5078482;28;20742;-77
2022/08/25 07:13:56;;;;;;;0.00;0.00;;;21.70;99.90;;;;;;5078193;28;20443;-77
2022/08/25 07:16:24;;;;;;;0.00;0.00;;;21.70;99.90;;;;;;5081310;28;20543;-78
2022/08/25 07:18:58;;;;;;;0.00;0.00;;;21.70;99.90;;;;;;5079902;28;20493;-77
2022/08/25 07:21:28;;;;;;;0.00;0.00;;;21.60;99.90;;;;;;5078882;28;20461;-76
2022/08/25 07:24:02;;;;;;;0.00;0.00;;;21.60;99.90;;;;;;5078921;28;20519;-77
2022/08/25 07:26:33;;;;;;;0.00;0.00;;;21.60;99.90;;;;;;5078305;28;20483;-77
2022/08/25 07:29:12;;;;;;;0.00;0.00;;;21.60;99.90;;;;;;5079323;28;20484;-77
2022/08/25 07:31:40;;;;;;;0.00;0.00;;;21.60;99.90;;;;;;5079249;28;21096;-76
2022/08/25 07:36:56;;;;;;;0.00;0.00;;;21.80;99.90;;;;;;5079368;28;20426;-77
2022/08/25 07:39:26;;;;;;;0.00;0.00;;;21.90;99.90;;;;;;5078372;28;20458;-77
2022/08/25 07:41:55;;;;;;;0.00;0.00;;;21.90;99.90;;;;;;5079056;28;20555;-76
2022/08/25 07:44:24;;;;;;;0.00;0.00;;;22.00;99.90;;;;;;5080140;28;20952;-75
2022/08/25 07:46:55;;;;;;;0.00;0.00;;;22.00;99.90;;;;;;5082744;28;20512;-76
2022/08/25 07:49:26;;;;;;;0.00;0.00;;;22.00;99.90;;;;;;5082355;28;20455;-77
2022/08/25 07:52:06;;;;;;;0.00;0.00;;;22.00;99.90;;;;;;5082331;28;20447;-76
2022/08/25 07:54:36;;;;;;;0.00;0.00;;;22.00;99.90;;;;;;5082338;28;20439;-76
2022/08/25 07:57:07;;;;;;;0.00;0.00;;;22.00;99.90;;;;;;5077145;28;20533;-77
2022/08/25 07:59:35;;;;;;;0.00;0.00;;;22.00;99.90;;;;;;5076465;28;20687;-77
2022/08/25 08:02:08;;;;;;;0.00;0.00;;;22.10;99.90;;;;;;5073738;28;20547;-75
2022/08/25 08:04:49;;;;;;;0.00;0.00;;;22.20;99.90;;;;;;5075003;28;20459;-76
2022/08/25 08:07:21;;;;;;;0.00;0.00;;;22.20;99.90;;;;;;5066618;28;20568;-78
2022/08/25 08:09:50;;;;;;;0.00;0.00;;;22.10;99.90;;;;;;5085445;28;20546;-78
2022/08/25 08:12:38;;;;;;;0.00;0.00;;;22.20;99.90;;;;;;5083213;28;20465;-77
2022/08/25 08:15:07;;;;;;;0.00;0.00;;;22.20;99.90;;;;;;5076202;28;20951;-77
2022/08/25 08:17:38;;;;;;;0.00;0.00;;;22.20;99.90;;;;;;5081322;28;20449;-78
2022/08/25 08:20:10;;;;;;;0.00;0.00;;;22.20;99.90;;;;;;5078103;28;20509;-68
2022/08/25 08:22:39;;;;;;;0.00;0.00;;;22.20;99.90;;;;;;5073655;28;20449;-71
2022/08/25 08:25:09;;;;;;;0.00;0.00;;;22.30;99.90;;;;;;5066193;28;20455;-72
2022/08/25 08:27:41;;;;;;;0.00;0.00;;;22.40;99.90;;;;;;5062679;28;20481;-72
2022/08/25 08:30:11;;;;;;;0.00;0.00;;;22.50;99.90;;;;;;5077616;28;20504;-71
2022/08/25 08:32:38;;;;;;;0.00;0.00;;;22.60;99.90;;;;;;5088081;28;20548;-72
2022/08/25 08:35:28;;;;;;;0.00;0.00;;;22.70;99.90;;;;;;5082372;28;20443;-71
2022/08/25 08:37:55;;;;;;;0.00;0.00;;;22.80;99.90;;;;;;5074694;28;20447;-73
2022/08/25 08:40:24;;;;;;;0.00;0.00;;;22.80;99.90;;;;;;5084155;28;20544;-72
2022/08/25 08:43:02;;;;;;;0.00;0.00;;;22.80;99.90;;;;;;5083166;28;20970;-72
2022/08/25 08:45:34;;;;;;;0.00;0.00;;;22.90;99.90;;;;;;5084110;28;20546;-72
2022/08/25 08:48:38;;;;;;;0.00;0.00;;;23.00;99.90;;;;;;5077076;28;20484;-71
2022/08/25 08:51:18;;;;;;;0.00;0.00;;;22.90;99.90;;;;;;5081614;28;20460;-71
2022/08/25 08:53:52;;;;;;;0.00;0.00;;;22.90;99.90;;;;;;5082254;28;20446;-72
2022/08/25 08:56:26;;;;;;;0.00;0.00;;;23.00;99.90;;;;;;5084086;28;20511;-71
2022/08/25 08:59:01;;;;;;;0.00;0.00;;;23.10;99.90;;;;;;5069229;28;20508;-72
2022/08/25 09:01:39;;;;;;;0.00;0.00;;;23.10;99.90;;;;;;5086871;28;21019;-73
2022/08/25 09:04:13;;;;;;;0.00;0.00;;;23.10;99.90;;;;;;5089937;28;20486;-71
2022/08/25 09:06:49;;;;;;;0.00;0.00;;;23.10;99.90;;;;;;5090313;28;20492;-73
2022/08/25 09:09:22;;;;;;;0.00;0.00;;;23.10;99.90;;;;;;5093198;28;20472;-71
2022/08/25 09:11:59;;;;;;;0.00;0.00;;;23.20;99.90;;;;;;5090783;28;20443;-72
2022/08/25 09:14:42;;;;;;;0.00;0.00;;;23.20;99.90;;;;;;5085952;28;20476;-72
2022/08/25 09:17:18;;;;;;;0.00;0.00;;;23.30;99.90;;;;;;5080852;28;20445;-75
2022/08/25 09:20:06;;;;;;;0.00;0.00;;;23.40;99.90;;;;;;5080896;28;20754;-71
2022/08/25 09:22:56;;;;;;;0.00;0.00;;;23.50;99.90;;;;;;5082042;28;20453;-74
2022/08/25 09:25:34;;;;;;;0.00;0.00;;;23.60;99.90;;;;;;5081961;28;20448;-75
2022/08/25 09:28:31;;;;;;;0.00;0.00;;;23.80;99.90;;;;;;5083687;28;20990;-74
2022/08/25 09:31:01;;;;;;;0.00;0.00;;;24.00;99.90;;;;;;5079941;28;20937;-74
2022/08/25 09:33:31;;;;;;;0.00;0.00;;;24.10;99.90;;;;;;5079954;28;20977;-73
2022/08/25 09:36:04;;;;;;;0.00;0.00;;;24.00;99.90;;;;;;5079692;28;20839;-74
2022/08/25 09:38:37;;;;;;;0.00;0.00;;;23.90;99.90;;;;;;5079677;28;20457;-75
2022/08/25 09:41:10;;;;;;;0.00;0.00;;;23.80;99.90;;;;;;5079804;28;20931;-74
2022/08/25 09:43:41;;;;;;;0.00;0.00;;;23.70;99.90;;;;;;5080942;28;20444;-74
2022/08/25 09:46:12;;;;;;;0.00;0.00;;;23.50;99.90;;;;;;5079690;28;20943;-76
2022/08/25 09:48:46;;;;;;;0.00;0.00;;;23.40;99.90;;;;;;5079239;28;20783;-75
2022/08/25 09:51:27;;;;;;;0.00;0.00;;;23.30;99.90;;;;;;5079324;28;20761;-75
2022/08/25 09:54:00;;;;;;;0.00;0.00;;;23.30;99.90;;;;;;5079016;28;20809;-75
2022/08/25 09:56:49;;;;;;;0.00;0.00;;;23.40;99.90;;;;;;5079419;28;20442;-74
2022/08/25 09:59:22;;;;;;;0.00;0.00;;;23.40;99.90;;;;;;5078909;28;20477;-75
2022/08/25 10:02:04;;;;;;;0.00;0.00;;;23.50;99.90;;;;;;5066743;28;20445;-75
2022/08/25 10:04:35;;;;;;;0.00;0.00;;;23.60;99.90;;;;;;5063854;28;20485;-75
2022/08/25 10:07:07;;;;;;;0.00;0.00;;;23.50;99.90;;;;;;5057031;28;20485;-75
2022/08/25 10:09:41;;;;;;;0.00;0.00;;;23.60;99.90;;;;;;5056895;28;20508;-75
2022/08/25 10:12:19;;;;;;;0.00;0.00;;;23.60;99.90;;;;;;5062146;28;20451;-76
2022/08/25 10:14:51;;;;;;;0.00;0.00;;;23.70;99.90;;;;;;5059791;28;20459;-75
2022/08/25 10:17:26;;;;;;;0.00;0.00;;;23.70;99.90;;;;;;5077694;28;20968;-74
2022/08/25 10:20:15;;;;;;;0.00;0.00;;;23.90;99.90;;;;;;5077372;28;21025;-75
2022/08/25 10:22:44;;;;;;;0.00;0.00;;;24.00;99.90;;;;;;5075788;28;20870;-72
2022/08/25 10:25:20;;;;;;;0.00;0.00;;;24.10;99.90;;;;;;5078321;28;20537;-71
2022/08/25 10:28:03;;;;;;;0.00;0.00;;;24.30;99.90;;;;;;5078455;28;20504;-72
2022/08/25 10:30:42;;;;;;;0.00;0.00;;;24.50;99.90;;;;;;5058964;28;20444;-71
2022/08/25 10:33:20;;;;;;;0.00;0.00;;;24.70;99.90;;;;;;5060732;28;20453;-71
2022/08/25 10:35:58;;;;;;;0.00;0.00;;;24.80;99.90;;;;;;5070333;28;21094;-71
2022/08/25 10:38:36;;;;;;;0.00;0.00;;;25.00;99.90;;;;;;5079022;28;21024;-71
2022/08/25 10:41:21;;;;;;;0.00;0.00;;;25.20;99.90;;;;;;5078146;28;20433;-71
2022/08/25 10:43:56;;;;;;;0.00;0.00;;;25.50;99.90;;;;;;5078423;28;20505;-71
2022/08/25 10:46:36;;;;;;;0.00;0.00;;;25.80;99.90;;;;;;5078126;28;21031;-71
2022/08/25 10:49:10;;;;;;;0.00;0.00;;;26.10;99.90;;;;;;5068669;28;20788;-71
2022/08/25 10:51:54;;;;;;;0.00;0.00;;;26.30;99.90;;;;;;5058342;28;20828;-71
2022/08/25 10:54:44;;;;;;;0.00;0.00;;;26.50;99.90;;;;;;5058841;28;20527;-72
2022/08/25 10:57:23;;;;;;;0.00;0.00;;;26.80;99.90;;;;;;5058003;28;21058;-72
2022/08/25 11:00:01;;;;;;;0.00;0.00;;;27.00;99.90;;;;;;5058190;28;20547;-71
2022/08/25 11:03:18;;;;;;;0.00;0.00;;;27.20;99.90;;;;;;5061797;28;20433;-71
2022/08/25 11:05:50;;;;;;;0.00;0.00;;;27.10;99.90;;;;;;5058600;28;20994;-72
2022/08/25 11:08:31;;;;;;;0.00;0.00;;;27.00;99.90;;;;;;5075778;28;20489;-72
2022/08/25 11:11:05;;;;;;;0.00;0.00;;;26.80;99.90;;;;;;5069874;28;20444;-72
2022/08/25 11:13:41;;;;;;;0.00;0.00;;;26.60;99.90;;;;;;5079398;28;20494;-73
2022/08/25 11:16:13;;;;;;;0.00;0.00;;;26.50;99.90;;;;;;5079860;28;20445;-72
2022/08/25 11:18:53;;;;;;;0.00;0.00;;;26.50;99.90;;;;;;5080051;28;20461;-71
2022/08/25 11:21:26;;;;;;;0.00;0.00;;;26.50;99.90;;;;;;5080313;28;20447;-72
2022/08/25 11:24:04;;;;;;;0.00;0.00;;;26.80;99.90;;;;;;5079620;28;20465;-71
2022/08/25 11:26:35;;;;;;;0.00;0.00;;;27.00;99.90;;;;;;5082615;28;20450;-72
2022/08/25 11:29:12;;;;;;;0.00;0.00;;;27.30;99.90;;;;;;5080279;28;20799;-70
2022/08/25 11:31:43;;;;;;;0.00;0.00;;;27.50;99.90;;;;;;5079118;28;20652;-72
2022/08/25 11:34:19;;;;;;;0.00;0.00;;;27.80;99.90;;;;;;5078658;28;20478;-72
2022/08/25 11:36:51;;;;;;;0.00;0.00;;;27.90;99.90;;;;;;5078966;28;20449;-71
2022/08/25 11:39:31;;;;;;;0.00;0.00;;;28.00;99.90;;;;;;5072572;28;20496;-71
2022/08/25 11:42:11;;;;;;;0.00;0.00;;;27.90;99.90;;;;;;5062795;28;20613;-71
2022/08/25 11:44:51;;;;;;;0.00;0.00;;;27.90;99.90;;;;;;5072285;28;20771;-71
2022/08/25 11:47:35;;;;;;;0.00;0.00;;;27.80;99.90;;;;;;5077582;28;21002;-72
2022/08/25 11:50:08;;;;;;;0.00;0.00;;;27.80;99.90;;;;;;5077869;28;20790;-72
2022/08/25 11:52:52;;;;;;;0.00;0.00;;;27.80;99.90;;;;;;5072226;28;20504;-70
2022/08/25 11:55:25;;;;;;;0.00;0.00;;;27.90;99.90;;;;;;5069303;28;20551;-71
2022/08/25 11:58:16;;;;;;;0.00;0.00;;;27.90;99.90;;;;;;5057873;28;20706;-71
2022/08/25 12:00:47;;;;;;;0.00;0.00;;;27.90;99.90;;;;;;5057453;28;20518;-71
2022/08/25 12:03:46;;;;;;;0.00;0.00;;;27.90;99.90;;;;;;5062857;28;20564;-70
2022/08/25 12:06:25;;;;;;;0.00;0.00;;;27.80;99.90;;;;;;5058158;28;20978;-71
2022/08/25 12:09:13;;;;;;;0.00;0.00;;;27.80;99.90;;;;;;5071202;28;20515;-71
2022/08/25 12:11:52;;;;;;;0.00;0.00;;;27.80;99.90;;;;;;5066200;28;20630;-71
2022/08/25 12:14:43;;;;;;;0.00;0.00;;;27.90;99.90;;;;;;5061090;28;20542;-71
2022/08/25 12:17:37;;;;;;;0.00;0.00;;;28.00;99.90;;;;;;5077617;28;20795;-71
2022/08/25 12:20:07;;;;;;;0.00;0.00;;;28.00;99.90;;;;;;5069030;28;20900;-71
2022/08/25 12:22:59;;;;;;;0.00;0.00;;;28.00;99.90;;;;;;5071132;28;20490;-71
2022/08/25 12:25:36;;;;;;;0.00;0.00;;;27.90;99.90;;;;;;5067101;28;20484;-71
2022/08/25 12:28:15;;;;;;;0.00;0.00;;;27.80;99.90;;;;;;5071693;28;20730;-72
2022/08/25 12:30:54;;;;;;;0.00;0.00;;;27.80;99.90;;;;;;5060839;28;20503;-73
2022/08/25 12:33:35;;;;;;;0.00;0.00;;;27.90;99.90;;;;;;5073206;28;20515;-72
2022/08/25 12:36:06;;;;;;;0.00;0.00;;;28.10;99.90;;;;;;5070228;28;20472;-72
2022/08/25 12:38:43;;;;;;;0.00;0.00;;;28.20;99.90;;;;;;5069935;28;20449;-71
2022/08/25 12:41:21;;;;;;;0.00;0.00;;;28.20;99.90;;;;;;5074427;28;20547;-71
2022/08/25 12:43:53;;;;;;;0.00;0.00;;;28.20;99.90;;;;;;5074223;28;20455;-73
2022/08/25 12:46:37;;;;;;;0.00;0.00;;;28.20;99.90;;;;;;5073363;28;20466;-72
2022/08/25 12:49:29;;;;;;;0.00;0.00;;;28.30;99.90;;;;;;5072281;28;20834;-74
2022/08/25 12:52:01;;;;;;;0.00;0.00;;;28.40;99.90;;;;;;5075926;28;20837;-75
2022/08/25 12:54:42;;;;;;;0.00;0.00;;;28.40;99.90;;;;;;5071674;28;20451;-75
2022/08/25 12:57:36;;;;;;;0.00;0.00;;;28.40;99.90;;;;;;5078590;28;20464;-76
2022/08/25 13:00:16;;;;;;;0.00;0.00;;;28.40;99.90;;;;;;5071405;28;20469;-73
2022/08/25 13:03:20;;;;;;;0.00;0.00;;;28.50;99.90;;;;;;5069135;28;20491;-73
2022/08/25 13:06:18;;;;;;;0.00;0.00;;;28.60;99.90;;;;;;5069483;28;20725;-72
2022/08/25 13:09:08;;;;;;;0.00;0.00;;;28.60;99.90;;;;;;5071257;28;20585;-72
2022/08/25 13:11:42;;;;;;;0.00;0.00;;;28.60;99.90;;;;;;5048632;28;20549;-73
2022/08/25 13:14:19;;;;;;;0.00;0.00;;;28.60;99.90;;;;;;5061640;28;20445;-78
2022/08/25 13:16:55;;;;;;;0.00;0.00;;;28.60;99.90;;;;;;5068456;28;20479;-72
2022/08/25 13:19:24;;;;;;;0.00;0.00;;;28.50;99.90;;;;;;5071022;28;20485;-70
2022/08/25 13:21:55;;;;;;;0.00;0.00;;;28.50;99.90;;;;;;5074469;28;21021;-71
2022/08/25 13:24:26;;;;;;;0.00;0.00;;;28.60;99.90;;;;;;5076211;28;20679;-69
2022/08/25 13:26:56;;;;;;;0.00;0.00;;;28.60;99.90;;;;;;5075938;28;20530;-71
2022/08/25 13:29:28;;;;;;;0.00;0.00;;;28.60;99.90;;;;;;5077696;28;20474;-72
2022/08/25 13:32:04;;;;;;;0.00;0.00;;;28.50;99.90;;;;;;5073422;28;20461;-69